createdAt,value
2022-12-13T00:00:38.164Z,6.95
2022-12-13T00:04:27.276Z,10.02
2022-12-13T00:08:02.501Z,15.37
2022-12-13T00:11:35.131Z,5.53
2022-12-13T00:15:07.778Z,4.65
2022-12-13T00:18:40.618Z,7.28
2022-12-13T00:22:13.109Z,4.27
2022-12-13T00:25:45.934Z,9.45
2022-12-13T00:29:17.794Z,6.47
2022-12-13T00:32:50.399Z,5.83
2022-12-13T00:36:23.178Z,12.10
2022-12-13T00:39:55.838Z,8.63
2022-12-13T00:43:28.679Z,8.97
2022-12-13T00:47:01.787Z,8.20
2022-12-13T00:50:34.357Z,5.57
2022-12-13T00:54:06.800Z,4.35
2022-12-13T00:57:38.712Z,6.73
2022-12-13T01:01:17.173Z,7.20
2022-12-13T01:04:51.967Z,3.80
2022-12-13T01:08:24.492Z,10.90
2022-12-13T01:12:06.099Z,7.65
2022-12-13T01:15:42.987Z,8.20
2022-12-13T01:19:15.524Z,5.37
2022-12-13T01:22:47.846Z,5.13
2022-12-13T01:26:22.009Z,6.45
2022-12-13T01:29:54.346Z,3.33
2022-12-13T01:33:27.191Z,4.43
2022-12-13T01:36:59.605Z,4.97
2022-12-13T01:40:31.301Z,5.55
2022-12-13T01:44:27.525Z,3.47
2022-12-13T01:48:04.001Z,6.40
2022-12-13T01:51:58.874Z,7.18
2022-12-13T01:55:34.749Z,4.33
2022-12-13T01:59:17.818Z,6.43
2022-12-13T02:02:50.600Z,9.10
2022-12-13T02:06:49.889Z,3.80
2022-12-13T02:10:22.255Z,7.00
2022-12-13T02:13:56.406Z,4.93
2022-12-13T02:17:49.986Z,6.03
2022-12-13T02:21:36.740Z,3.10
2022-12-13T02:25:36.969Z,7.47
2022-12-13T02:29:31.530Z,6.72
2022-12-13T02:33:13.023Z,8.03
2022-12-13T02:37:18.164Z,3.67
2022-12-13T02:41:01.539Z,2.20
2022-12-13T02:45:00.464Z,4.20
2022-12-13T02:48:36.508Z,1.83
2022-12-13T02:52:12.618Z,4.05
2022-12-13T02:55:44.697Z,2.15
2022-12-13T02:59:17.575Z,3.87
2022-12-13T03:03:07.589Z,2.33
2022-12-13T03:07:03.004Z,4.28
2022-12-13T03:10:59.251Z,4.50
2022-12-13T03:14:36.650Z,1.95
2022-12-13T03:18:17.534Z,5.78
2022-12-13T03:21:50.121Z,6.53
2022-12-13T03:25:30.752Z,4.73
2022-12-13T03:29:05.835Z,4.40
2022-12-13T03:32:37.831Z,5.03
2022-12-13T03:36:11.601Z,4.40
2022-12-13T03:39:43.568Z,5.43
2022-12-13T03:43:22.054Z,3.30
2022-12-13T03:46:55.318Z,2.73
2022-12-13T03:50:32.965Z,4.68
2022-12-13T03:54:04.845Z,5.07
2022-12-13T03:57:37.213Z,4.40
2022-12-13T04:01:12.040Z,6.20
2022-12-13T04:04:44.541Z,4.03
2022-12-13T04:08:22.085Z,1.90
2022-12-13T04:12:13.116Z,5.47
2022-12-13T04:15:49.097Z,2.33
2022-12-13T04:19:23.151Z,2.78
2022-12-13T04:22:56.383Z,4.83
2022-12-13T04:26:29.654Z,4.18
2022-12-13T04:30:01.581Z,7.00
2022-12-13T04:33:33.960Z,2.90
2022-12-13T04:37:06.195Z,1.97
2022-12-13T04:40:38.549Z,7.25
2022-12-13T04:44:27.582Z,4.28
2022-12-13T04:48:02.567Z,6.40
2022-12-13T04:51:34.568Z,8.90
2022-12-13T04:55:09.452Z,3.25
2022-12-13T04:58:41.275Z,5.30
2022-12-13T05:02:13.908Z,3.97
2022-12-13T05:05:55.912Z,2.65
2022-12-13T05:09:27.923Z,1.63
2022-12-13T05:13:00.302Z,5.83
2022-12-13T05:16:32.649Z,3.10
2022-12-13T05:20:04.717Z,4.15
2022-12-13T05:23:37.762Z,2.90
2022-12-13T05:27:24.527Z,4.53
2022-12-13T05:31:23.149Z,6.93
2022-12-13T05:34:56.175Z,3.30
2022-12-13T05:38:28.937Z,5.35
2022-12-13T05:42:02.590Z,3.15
2022-12-13T05:45:36.274Z,4.45
2022-12-13T05:49:08.072Z,3.37
2022-12-13T05:52:40.138Z,2.88
2022-12-13T05:56:13.367Z,4.32
2022-12-13T05:59:54.755Z,3.43
2022-12-13T06:03:26.622Z,6.45
2022-12-13T06:06:58.914Z,3.72
2022-12-13T06:10:35.103Z,3.63
2022-12-13T06:14:22.435Z,8.23
2022-12-13T06:17:55.103Z,7.68
2022-12-13T06:21:27.235Z,6.05
2022-12-13T06:24:58.853Z,7.80
2022-12-13T06:28:30.885Z,3.10
2022-12-13T06:32:03.905Z,10.18
2022-12-13T06:35:41.179Z,2.97
2022-12-13T06:39:15.591Z,5.65
2022-12-13T06:42:47.684Z,3.92
2022-12-13T06:46:19.483Z,4.97
2022-12-13T06:49:51.628Z,4.60
2022-12-13T06:53:24.947Z,5.70
2022-12-13T06:56:57.026Z,2.05
2022-12-13T07:00:35.704Z,5.53
2022-12-13T07:04:29.877Z,6.30
2022-12-13T07:08:02.563Z,3.72
2022-12-13T07:11:35.002Z,6.47
2022-12-13T07:15:07.928Z,3.95
2022-12-13T07:18:40.103Z,3.78
2022-12-13T07:22:11.879Z,3.13
2022-12-13T07:25:53.194Z,12.63
2022-12-13T07:29:24.898Z,2.60
2022-12-13T07:32:56.780Z,3.40
2022-12-13T07:36:28.573Z,2.00
2022-12-13T07:40:04.438Z,6.07
2022-12-13T07:43:36.846Z,3.10
2022-12-13T07:47:08.873Z,7.10
2022-12-13T07:50:40.669Z,6.82
2022-12-13T07:54:12.928Z,4.10
2022-12-13T07:57:45.267Z,2.33
2022-12-13T08:01:18.702Z,1.73
2022-12-13T08:04:55.029Z,6.72
2022-12-13T08:08:31.161Z,2.10
2022-12-13T08:12:05.636Z,2.33
2022-12-13T08:15:37.969Z,4.45
2022-12-13T08:19:10.266Z,4.20
2022-12-13T08:22:42.194Z,4.63
2022-12-13T08:26:22.941Z,4.80
2022-12-13T08:29:55.166Z,6.72
2022-12-13T08:33:26.816Z,6.57
2022-12-13T08:37:02.252Z,5.55
2022-12-13T08:40:35.318Z,4.03
2022-12-13T08:44:07.259Z,5.45
2022-12-13T08:47:41.752Z,3.43
2022-12-13T08:51:15.617Z,6.40
2022-12-13T08:54:56.788Z,4.15
2022-12-13T08:58:29.618Z,8.43
2022-12-13T09:02:04.945Z,10.23
2022-12-13T09:05:38.027Z,3.63
2022-12-13T09:09:09.999Z,2.53
2022-12-13T09:12:43.042Z,8.38
2022-12-13T09:16:23.232Z,5.82
2022-12-13T09:19:57.933Z,6.13
2022-12-13T09:23:30.475Z,5.63
2022-12-13T09:27:10.260Z,6.43
2022-12-13T09:30:42.282Z,5.43
2022-12-13T09:34:14.304Z,9.30
2022-12-13T09:37:46.382Z,7.03
2022-12-13T09:41:32.755Z,3.78
2022-12-13T09:45:22.799Z,3.60
2022-12-13T09:49:02.799Z,4.25
2022-12-13T09:52:40.745Z,5.43
2022-12-13T09:56:13.269Z,7.15
2022-12-13T09:59:45.179Z,4.53
2022-12-13T10:03:20.535Z,7.57
2022-12-13T10:06:54.148Z,7.05
2022-12-13T10:10:26.617Z,3.23
2022-12-13T10:14:04.020Z,5.15
2022-12-13T10:17:41.114Z,2.20
2022-12-13T10:21:26.842Z,6.53
2022-12-13T10:25:05.973Z,5.68
2022-12-13T10:28:38.169Z,4.25
2022-12-13T10:32:13.814Z,4.53
2022-12-13T10:36:07.563Z,6.63
2022-12-13T10:39:43.626Z,6.95
2022-12-13T10:43:18.946Z,7.47
2022-12-13T10:47:03.540Z,2.27
2022-12-13T10:50:35.711Z,3.30
2022-12-13T10:54:17.031Z,7.00
2022-12-13T10:58:07.142Z,4.77
2022-12-13T11:01:39.664Z,6.00
2022-12-13T11:05:33.290Z,5.47
2022-12-13T11:09:22.925Z,4.68
2022-12-13T11:13:02.374Z,8.63
2022-12-13T11:16:38.792Z,5.53
2022-12-13T11:20:22.020Z,10.18
2022-12-13T11:23:57.081Z,7.00
2022-12-13T11:27:58.054Z,7.97
2022-12-13T11:31:38.857Z,3.75
2022-12-13T11:35:24.916Z,1.63
2022-12-13T11:39:09.417Z,10.38
2022-12-13T11:43:02.323Z,6.80
2022-12-13T11:46:42.634Z,8.88
2022-12-13T11:50:32.824Z,8.77
2022-12-13T11:54:23.505Z,6.47
2022-12-13T11:58:32.527Z,7.35
2022-12-13T12:02:35.302Z,9.80
2022-12-13T12:06:13.456Z,5.53
2022-12-13T12:09:58.390Z,15.40
2022-12-13T12:13:50.576Z,9.27
2022-12-13T12:17:25.413Z,5.75
2022-12-13T12:20:57.450Z,10.13
2022-12-13T12:24:44.578Z,5.05
2022-12-13T12:28:34.544Z,4.33
2022-12-13T12:32:30.358Z,6.03
2022-12-13T12:36:08.993Z,4.50
2022-12-13T12:40:06.331Z,4.73
2022-12-13T12:43:42.487Z,3.72
2022-12-13T12:47:48.969Z,4.45
2022-12-13T12:51:23.147Z,4.70
2022-12-13T12:55:18.139Z,8.20
2022-12-13T12:58:54.195Z,6.30
2022-12-13T13:02:41.898Z,7.57
2022-12-13T13:06:37.622Z,9.13
2022-12-13T13:10:16.555Z,4.70
2022-12-13T13:14:02.331Z,3.88
2022-12-13T13:17:34.457Z,6.07
2022-12-13T13:21:39.902Z,5.57
2022-12-13T13:25:11.897Z,5.88
2022-12-13T13:28:43.967Z,5.93
2022-12-13T13:32:29.422Z,10.52
2022-12-13T13:36:01.663Z,4.82
2022-12-13T13:39:36.670Z,4.43
2022-12-13T13:43:11.303Z,6.90
2022-12-13T13:47:24.610Z,8.38
2022-12-13T13:50:56.546Z,6.30
2022-12-13T13:54:37.261Z,5.87
2022-12-13T13:58:27.519Z,5.30
2022-12-13T14:02:20.468Z,7.43
2022-12-13T14:06:14.507Z,7.47
2022-12-13T14:09:52.627Z,9.60
2022-12-13T14:13:48.611Z,10.63
2022-12-13T14:17:51.151Z,7.63
2022-12-13T14:21:54.891Z,6.97
2022-12-13T14:25:52.183Z,8.60
2022-12-13T14:29:39.432Z,5.95
2022-12-13T14:33:22.957Z,6.17
2022-12-13T14:36:57.829Z,5.88
2022-12-13T14:40:47.297Z,3.40
2022-12-13T14:44:25.218Z,5.70
2022-12-13T14:47:59.676Z,9.30
2022-12-13T14:51:35.732Z,9.57
2022-12-13T14:55:20.986Z,10.10
2022-12-13T14:59:11.322Z,8.70
2022-12-13T15:02:53.247Z,8.73
2022-12-13T15:06:25.338Z,8.30
2022-12-13T15:10:00.838Z,10.33
2022-12-13T15:13:42.993Z,10.60
2022-12-13T15:17:29.900Z,7.95
2022-12-13T15:21:02.160Z,15.37
2022-12-13T15:24:50.001Z,12.05
2022-12-13T15:28:22.272Z,14.10
2022-12-13T15:31:54.885Z,9.52
2022-12-13T15:35:27.270Z,8.77
2022-12-13T15:39:02.230Z,8.80
2022-12-13T15:42:37.057Z,12.63
2022-12-13T15:46:10.176Z,10.00
2022-12-13T15:49:54.148Z,13.02
2022-12-13T15:53:28.908Z,11.18
2022-12-13T15:57:28.189Z,11.83
2022-12-13T16:01:05.367Z,14.18
2022-12-13T16:04:37.416Z,14.10
2022-12-13T16:08:29.017Z,15.55
2022-12-13T16:12:03.969Z,17.17
2022-12-13T16:15:50.672Z,10.27
2022-12-13T16:19:22.739Z,8.85
2022-12-13T16:22:54.824Z,14.10
2022-12-13T16:26:34.376Z,12.77
2022-12-13T16:30:12.689Z,13.48
2022-12-13T16:33:44.831Z,6.13
2022-12-13T16:37:26.602Z,8.98
2022-12-13T16:41:08.641Z,8.27
2022-12-13T16:44:41.814Z,10.13
2022-12-13T16:48:14.477Z,14.53
2022-12-13T16:51:48.907Z,11.80
2022-12-13T16:55:21.179Z,10.68
2022-12-13T16:58:53.367Z,15.20
2022-12-13T17:02:25.160Z,15.30
2022-12-13T17:05:58.854Z,11.25
2022-12-13T17:09:35.033Z,20.03
2022-12-13T17:13:07.343Z,12.13
2022-12-13T17:16:39.229Z,11.45
2022-12-13T17:20:15.092Z,7.90
2022-12-13T17:23:46.942Z,9.93
2022-12-13T17:27:19.354Z,13.52
2022-12-13T17:30:54.825Z,10.40
2022-12-13T17:34:27.482Z,9.87
2022-12-13T17:37:59.287Z,11.95
2022-12-13T17:41:31.399Z,13.48
2022-12-13T17:45:03.722Z,9.97
2022-12-13T17:48:40.699Z,9.55
2022-12-13T17:52:13.080Z,12.38
2022-12-13T17:55:46.037Z,7.28
2022-12-13T17:59:18.289Z,12.30
2022-12-13T18:02:55.759Z,8.07
2022-12-13T18:06:27.808Z,6.43
2022-12-13T18:09:59.868Z,7.77
2022-12-13T18:13:31.610Z,14.02
2022-12-13T18:17:03.819Z,8.85
2022-12-13T18:20:36.332Z,10.07
2022-12-13T18:24:10.103Z,11.55
2022-12-13T18:27:41.842Z,15.50
2022-12-13T18:31:20.027Z,10.40
2022-12-13T18:34:54.713Z,12.17
2022-12-13T18:38:34.480Z,13.82
2022-12-13T18:42:08.117Z,20.70
2022-12-13T18:45:40.252Z,15.40
2022-12-13T18:49:11.933Z,15.60
2022-12-13T18:52:44.030Z,17.88
2022-12-13T18:56:19.065Z,20.37
2022-12-13T18:59:54.099Z,21.98
2022-12-13T19:03:27.319Z,18.40
2022-12-13T19:06:59.629Z,14.73
2022-12-13T19:10:32.921Z,15.43
2022-12-13T19:14:05.097Z,19.13
2022-12-13T19:17:36.776Z,20.30
2022-12-13T19:21:12.211Z,20.83
2022-12-13T19:24:44.034Z,21.35
2022-12-13T19:28:17.723Z,16.25
2022-12-13T19:31:49.524Z,19.17
2022-12-13T19:35:21.763Z,14.30
2022-12-13T19:38:56.017Z,17.80
2022-12-13T19:42:28.252Z,13.82
2022-12-13T19:46:01.308Z,18.07
2022-12-13T19:49:33.523Z,11.95
2022-12-13T19:53:06.001Z,16.67
2022-12-13T19:56:38.430Z,8.97
2022-12-13T20:00:11.664Z,11.00
2022-12-13T20:03:45.676Z,12.98
2022-12-13T20:07:17.934Z,17.90
2022-12-13T20:11:00.517Z,11.93
2022-12-13T20:14:32.424Z,13.52
2022-12-13T20:18:04.629Z,12.13
2022-12-13T20:21:36.462Z,18.47
2022-12-13T20:25:09.474Z,13.82
2022-12-13T20:28:42.243Z,19.65
2022-12-13T20:32:14.477Z,14.23
2022-12-13T20:36:15.177Z,12.85
2022-12-13T20:39:38.920Z,13.13
2022-12-13T20:43:10.568Z,12.50
2022-12-13T20:46:42.647Z,16.55
2022-12-13T20:50:15.723Z,11.00
2022-12-13T20:53:49.716Z,13.65
2022-12-13T20:57:21.700Z,12.80
2022-12-13T21:00:54.615Z,8.95
2022-12-13T21:04:28.079Z,12.65
2022-12-13T21:08:18.657Z,9.67
2022-12-13T21:11:50.566Z,18.95
2022-12-13T21:15:22.708Z,18.52
2022-12-13T21:18:56.557Z,27.10
2022-12-13T21:22:28.605Z,25.05
2022-12-13T21:26:00.258Z,23.08
2022-12-13T21:29:32.435Z,22.42
2022-12-13T21:33:04.189Z,27.43
2022-12-13T21:36:38.316Z,23.70
2022-12-13T21:40:10.638Z,25.33
2022-12-13T21:43:42.665Z,30.83
2022-12-13T21:47:19.861Z,32.55
2022-12-13T21:50:52.283Z,31.63
2022-12-13T21:54:23.980Z,30.73
2022-12-13T21:58:14.413Z,37.53
2022-12-13T22:02:07.482Z,34.08
2022-12-13T22:05:39.599Z,41.80
2022-12-13T22:09:11.352Z,44.13
2022-12-13T22:12:43.595Z,50.33
2022-12-13T22:16:15.676Z,36.60
2022-12-13T22:19:48.490Z,39.87
2022-12-13T22:23:21.204Z,30.35
2022-12-13T22:26:53.502Z,33.83
2022-12-13T22:30:27.065Z,33.83
2022-12-13T22:33:59.289Z,31.83
2022-12-13T22:37:31.661Z,37.25
2022-12-13T22:41:05.579Z,30.92
2022-12-13T22:44:37.517Z,30.77
2022-12-13T22:48:09.684Z,34.38
2022-12-13T22:51:42.194Z,31.52
2022-12-13T22:55:14.326Z,39.63
2022-12-13T22:58:46.143Z,28.20
2022-12-13T23:02:18.276Z,39.78
2022-12-13T23:05:49.993Z,38.70
2022-12-13T23:09:22.302Z,33.60
2022-12-13T23:13:02.857Z,32.92
2022-12-13T23:16:37.684Z,45.22
2022-12-13T23:20:10.098Z,55.23
2022-12-13T23:23:42.526Z,47.90
2022-12-13T23:27:14.855Z,51.17
2022-12-13T23:30:46.817Z,38.70
2022-12-13T23:34:18.473Z,46.22
2022-12-13T23:37:50.407Z,55.72
2022-12-13T23:41:24.817Z,54.93
2022-12-13T23:44:59.307Z,50.80
2022-12-13T23:48:31.355Z,49.85
2022-12-13T23:52:04.032Z,50.33
2022-12-13T23:55:38.420Z,58.00
2022-12-13T23:59:10.696Z,50.08
